createdAt,value
2022-12-27T00:00:16.877Z,1012.02
2022-12-27T00:01:16.848Z,1012.05
2022-12-27T00:02:16.876Z,1012.14
2022-12-27T00:03:16.853Z,1011.94
2022-12-27T00:04:16.864Z,1012.00
2022-12-27T00:05:16.839Z,1011.99
2022-12-27T00:06:16.781Z,1011.97
2022-12-27T00:07:16.808Z,1011.93
2022-12-27T00:08:16.772Z,1011.96
2022-12-27T00:09:16.772Z,1011.94
2022-12-27T00:10:16.759Z,1011.86
2022-12-27T00:11:16.929Z,1011.86
2022-12-27T00:12:16.736Z,1011.89
2022-12-27T00:13:16.721Z,1012.10
2022-12-27T00:14:16.734Z,1011.82
2022-12-27T00:15:16.723Z,1011.92
2022-12-27T00:16:16.705Z,1011.96
2022-12-27T00:17:16.894Z,1012.08
2022-12-27T00:18:16.664Z,1011.95
2022-12-27T00:19:16.655Z,1012.02
2022-12-27T00:20:16.680Z,1011.96
2022-12-27T00:21:16.636Z,1011.98
2022-12-27T00:22:16.616Z,1012.11
2022-12-27T00:23:16.629Z,1011.95
2022-12-27T00:24:16.606Z,1012.14
2022-12-27T00:25:16.604Z,1012.06
2022-12-27T00:26:16.583Z,1011.97
2022-12-27T00:27:16.744Z,1012.09
2022-12-27T00:28:16.564Z,1012.22
2022-12-27T00:29:16.575Z,1012.06
2022-12-27T00:30:16.520Z,1012.12
2022-12-27T00:31:16.554Z,1012.10
2022-12-27T00:32:16.492Z,1012.11
2022-12-27T00:33:16.507Z,1012.18
2022-12-27T00:34:16.487Z,1012.19
2022-12-27T00:35:16.486Z,1012.09
2022-12-27T00:36:16.474Z,1012.16
2022-12-27T00:37:16.483Z,1012.06
2022-12-27T00:38:16.466Z,1012.02
2022-12-27T00:39:16.455Z,1012.06
2022-12-27T00:40:16.430Z,1012.19
2022-12-27T00:41:16.417Z,1012.13
2022-12-27T00:42:16.419Z,1012.17
2022-12-27T00:43:16.391Z,1012.16
2022-12-27T00:44:16.377Z,1012.16
2022-12-27T00:45:16.397Z,1012.12
2022-12-27T00:46:16.349Z,1012.23
2022-12-27T00:47:16.377Z,1012.14
2022-12-27T00:48:16.396Z,1012.16
2022-12-27T00:49:16.345Z,1012.15
2022-12-27T00:50:16.317Z,1012.29
2022-12-27T00:51:16.344Z,1012.15
2022-12-27T00:52:16.307Z,1012.15
2022-12-27T00:53:16.307Z,1012.21
2022-12-27T00:54:16.282Z,1012.23
2022-12-27T00:55:16.282Z,1012.19
2022-12-27T00:56:16.260Z,1012.28
2022-12-27T00:57:16.271Z,1012.30
2022-12-27T00:58:16.232Z,1012.28
2022-12-27T00:59:16.248Z,1012.24
2022-12-27T01:00:16.212Z,1012.31
2022-12-27T01:01:16.310Z,1012.27
2022-12-27T01:02:16.245Z,1012.32
2022-12-27T01:03:16.202Z,1012.35
2022-12-27T01:04:16.207Z,1012.39
2022-12-27T01:05:16.168Z,1012.33
2022-12-27T01:06:16.156Z,1012.38
2022-12-27T01:07:16.195Z,1012.38
2022-12-27T01:08:16.117Z,1012.38
2022-12-27T01:09:16.121Z,1012.34
2022-12-27T01:10:16.108Z,1012.37
2022-12-27T01:11:16.102Z,1012.36
2022-12-27T01:12:16.104Z,1012.47
2022-12-27T01:13:16.099Z,1012.49
2022-12-27T01:14:16.073Z,1012.49
2022-12-27T01:15:16.089Z,1012.36
2022-12-27T01:16:16.062Z,1012.44
2022-12-27T01:17:16.045Z,1012.44
2022-12-27T01:18:16.008Z,1012.43
2022-12-27T01:19:16.301Z,1012.38
2022-12-27T01:20:16.002Z,1012.39
2022-12-27T01:21:15.988Z,1012.37
2022-12-27T01:22:15.980Z,1012.34
2022-12-27T01:23:15.977Z,1012.32
2022-12-27T01:24:15.954Z,1012.44
2022-12-27T01:25:15.935Z,1012.48
2022-12-27T01:26:23.426Z,1012.44
2022-12-27T01:27:23.421Z,1012.50
2022-12-27T01:28:23.434Z,1012.50
2022-12-27T01:29:15.898Z,1012.47
2022-12-27T01:30:24.411Z,1012.54
2022-12-27T01:31:23.441Z,1012.55
2022-12-27T01:32:15.875Z,1012.54
2022-12-27T01:33:15.874Z,1012.56
2022-12-27T01:34:15.830Z,1012.50
2022-12-27T01:35:15.865Z,1012.52
2022-12-27T01:36:15.841Z,1012.59
2022-12-27T01:37:15.827Z,1012.56
2022-12-27T01:38:15.816Z,1012.58
2022-12-27T01:39:15.812Z,1012.56
2022-12-27T01:40:15.786Z,1012.55
2022-12-27T01:41:15.781Z,1012.65
2022-12-27T01:42:15.767Z,1012.58
2022-12-27T01:43:15.765Z,1012.61
2022-12-27T01:44:15.735Z,1012.72
2022-12-27T01:45:15.735Z,1012.62
2022-12-27T01:46:15.814Z,1012.56
2022-12-27T01:47:15.746Z,1012.65
2022-12-27T01:48:15.681Z,1012.58
2022-12-27T01:49:15.674Z,1012.71
2022-12-27T01:50:15.741Z,1012.50
2022-12-27T01:51:15.689Z,1012.54
2022-12-27T01:52:15.663Z,1012.57
2022-12-27T01:53:15.639Z,1012.60
2022-12-27T01:54:15.637Z,1012.60
2022-12-27T01:55:15.630Z,1012.54
2022-12-27T01:56:15.614Z,1012.66
2022-12-27T01:57:15.600Z,1012.64
2022-12-27T01:58:15.582Z,1012.65
2022-12-27T01:59:15.579Z,1012.68
2022-12-27T02:00:15.580Z,1012.70
2022-12-27T02:01:15.621Z,1012.65
2022-12-27T02:02:15.694Z,1012.57
2022-12-27T02:03:15.565Z,1012.69
2022-12-27T02:04:15.558Z,1012.61
2022-12-27T02:05:15.517Z,1012.61
2022-12-27T02:06:15.489Z,1012.71
2022-12-27T02:07:15.493Z,1012.69
2022-12-27T02:08:15.493Z,1012.67
2022-12-27T02:09:15.477Z,1012.63
2022-12-27T02:10:15.468Z,1012.57
2022-12-27T02:11:15.448Z,1012.64
2022-12-27T02:12:15.448Z,1012.62
2022-12-27T02:13:15.432Z,1012.71
2022-12-27T02:14:15.413Z,1012.67
2022-12-27T02:15:15.435Z,1012.71
2022-12-27T02:16:15.434Z,1012.68
2022-12-27T02:17:15.381Z,1012.70
2022-12-27T02:18:15.373Z,1012.70
2022-12-27T02:19:15.367Z,1012.71
2022-12-27T02:20:15.353Z,1012.74
2022-12-27T02:21:15.498Z,1012.74
2022-12-27T02:22:15.330Z,1012.76
2022-12-27T02:23:15.340Z,1012.76
2022-12-27T02:24:15.308Z,1012.81
2022-12-27T02:25:15.307Z,1012.82
2022-12-27T02:26:15.279Z,1012.84
2022-12-27T02:27:15.281Z,1012.80
2022-12-27T02:28:15.294Z,1012.90
2022-12-27T02:29:15.272Z,1012.83
2022-12-27T02:30:15.243Z,1012.89
2022-12-27T02:31:15.317Z,1012.83
2022-12-27T02:32:15.211Z,1012.89
2022-12-27T02:33:15.238Z,1012.91
2022-12-27T02:34:15.197Z,1012.87
2022-12-27T02:35:15.188Z,1012.90
2022-12-27T02:36:15.182Z,1012.91
2022-12-27T02:37:15.206Z,1012.93
2022-12-27T02:38:15.157Z,1012.89
2022-12-27T02:39:15.177Z,1012.88
2022-12-27T02:40:15.112Z,1012.87
2022-12-27T02:41:15.133Z,1012.98
2022-12-27T02:42:15.127Z,1012.91
2022-12-27T02:43:15.100Z,1012.93
2022-12-27T02:44:15.085Z,1012.93
2022-12-27T02:45:15.125Z,1013.02
2022-12-27T02:46:21.246Z,1012.87
2022-12-27T02:47:16.042Z,1013.03
2022-12-27T02:48:15.068Z,1012.86
2022-12-27T02:49:15.016Z,1012.89
2022-12-27T02:50:19.098Z,1012.99
2022-12-27T02:51:15.024Z,1012.88
2022-12-27T02:52:15.093Z,1012.87
2022-12-27T02:53:14.989Z,1012.87
2022-12-27T02:54:15.009Z,1012.97
2022-12-27T02:55:14.969Z,1012.91
2022-12-27T02:56:14.978Z,1012.88
2022-12-27T02:57:14.938Z,1012.90
2022-12-27T02:58:14.949Z,1012.87
2022-12-27T02:59:14.903Z,1012.83
2022-12-27T03:00:14.989Z,1012.90
2022-12-27T03:01:14.983Z,1013.05
2022-12-27T03:02:15.051Z,1012.89
2022-12-27T03:03:14.941Z,1012.95
2022-12-27T03:04:14.914Z,1012.93
2022-12-27T03:05:14.858Z,1012.98
2022-12-27T03:06:14.865Z,1013.02
2022-12-27T03:07:14.843Z,1012.94
2022-12-27T03:08:14.828Z,1012.93
2022-12-27T03:09:14.816Z,1012.92
2022-12-27T03:10:14.791Z,1012.99
2022-12-27T03:11:14.796Z,1013.00
2022-12-27T03:12:14.798Z,1013.01
2022-12-27T03:13:14.764Z,1013.02
2022-12-27T03:14:14.754Z,1013.18
2022-12-27T03:15:14.732Z,1012.99
2022-12-27T03:16:14.832Z,1012.95
2022-12-27T03:17:14.727Z,1012.95
2022-12-27T03:18:14.720Z,1012.94
2022-12-27T03:19:14.712Z,1012.89
2022-12-27T03:20:14.686Z,1012.87
2022-12-27T03:21:14.679Z,1012.87
2022-12-27T03:22:14.695Z,1012.95
2022-12-27T03:23:15.399Z,1012.90
2022-12-27T03:24:14.664Z,1013.06
2022-12-27T03:25:14.641Z,1012.87
2022-12-27T03:26:14.639Z,1012.94
2022-12-27T03:27:14.620Z,1012.98
2022-12-27T03:28:14.641Z,1012.95
2022-12-27T03:29:14.596Z,1013.04
2022-12-27T03:30:14.587Z,1012.99
2022-12-27T03:31:14.604Z,1013.00
2022-12-27T03:32:14.604Z,1012.99
2022-12-27T03:33:14.548Z,1012.97
2022-12-27T03:34:14.575Z,1013.05
2022-12-27T03:35:14.511Z,1012.96
2022-12-27T03:36:14.519Z,1013.01
2022-12-27T03:37:14.493Z,1013.08
2022-12-27T03:38:14.501Z,1013.08
2022-12-27T03:39:22.009Z,1013.05
2022-12-27T03:40:14.499Z,1012.97
2022-12-27T03:41:21.956Z,1013.05
2022-12-27T03:42:14.481Z,1013.12
2022-12-27T03:43:14.435Z,1013.06
2022-12-27T03:44:22.972Z,1013.07
2022-12-27T03:45:21.935Z,1013.12
2022-12-27T03:46:14.480Z,1013.10
2022-12-27T03:47:14.390Z,1013.23
2022-12-27T03:48:14.391Z,1013.17
2022-12-27T03:49:14.386Z,1013.12
2022-12-27T03:50:14.376Z,1013.11
2022-12-27T03:51:14.383Z,1013.06
2022-12-27T03:52:14.357Z,1013.18
2022-12-27T03:53:14.331Z,1013.14
2022-12-27T03:54:14.419Z,1013.02
2022-12-27T03:55:14.317Z,1013.02
2022-12-27T03:56:14.321Z,1013.04
2022-12-27T03:57:14.300Z,1013.10
2022-12-27T03:58:14.302Z,1013.12
2022-12-27T03:59:14.260Z,1013.12
2022-12-27T04:00:14.303Z,1013.14
2022-12-27T04:01:14.411Z,1013.21
2022-12-27T04:02:14.430Z,1013.23
2022-12-27T04:03:14.276Z,1013.21
2022-12-27T04:04:14.223Z,1013.21
2022-12-27T04:05:14.222Z,1013.21
2022-12-27T04:06:14.204Z,1013.19
2022-12-27T04:07:14.183Z,1013.26
2022-12-27T04:08:14.194Z,1013.19
2022-12-27T04:09:14.166Z,1013.27
2022-12-27T04:10:14.179Z,1013.19
2022-12-27T04:11:14.141Z,1013.26
2022-12-27T04:12:14.136Z,1013.20
2022-12-27T04:13:14.126Z,1013.19
2022-12-27T04:14:14.148Z,1013.17
2022-12-27T04:15:14.105Z,1013.22
2022-12-27T04:16:14.217Z,1013.46
2022-12-27T04:17:14.071Z,1013.26
2022-12-27T04:18:14.088Z,1013.52
2022-12-27T04:19:14.065Z,1013.26
2022-12-27T04:20:14.041Z,1013.26
2022-12-27T04:21:14.041Z,1013.20
2022-12-27T04:22:14.065Z,1013.22
2022-12-27T04:23:13.999Z,1013.37
2022-12-27T04:24:14.018Z,1013.28
2022-12-27T04:25:14.159Z,1013.39
2022-12-27T04:26:13.987Z,1013.22
2022-12-27T04:27:13.998Z,1013.27
2022-12-27T04:28:13.982Z,1013.25
2022-12-27T04:29:13.942Z,1013.26
2022-12-27T04:30:13.936Z,1013.24
2022-12-27T04:31:13.967Z,1013.24
2022-12-27T04:32:13.955Z,1013.27
2022-12-27T04:33:13.909Z,1013.24
2022-12-27T04:34:13.954Z,1013.23
2022-12-27T04:35:13.873Z,1013.22
2022-12-27T04:36:13.876Z,1013.32
2022-12-27T04:37:13.875Z,1013.29
2022-12-27T04:38:13.843Z,1013.34
2022-12-27T04:39:13.859Z,1013.35
2022-12-27T04:40:13.858Z,1013.32
2022-12-27T04:41:13.827Z,1013.34
2022-12-27T04:42:13.833Z,1013.29
2022-12-27T04:43:14.501Z,1013.32
2022-12-27T04:44:13.839Z,1013.35
2022-12-27T04:45:15.600Z,1013.38
2022-12-27T04:46:13.825Z,1013.31
2022-12-27T04:47:13.780Z,1013.30
2022-12-27T04:48:13.766Z,1013.28
2022-12-27T04:49:13.735Z,1013.52
2022-12-27T04:50:13.755Z,1013.31
2022-12-27T04:51:13.719Z,1013.26
2022-12-27T04:52:13.711Z,1013.32
2022-12-27T04:53:13.675Z,1013.32
2022-12-27T04:54:13.705Z,1013.30
2022-12-27T04:55:13.675Z,1013.29
2022-12-27T04:56:13.687Z,1013.31
2022-12-27T04:57:13.653Z,1013.39
2022-12-27T04:58:17.833Z,1013.29
2022-12-27T04:59:13.627Z,1013.29
2022-12-27T05:00:13.647Z,1013.45
2022-12-27T05:01:19.082Z,1013.27
2022-12-27T05:03:25.225Z,1013.35
2022-12-27T05:04:25.197Z,1013.36
2022-12-27T05:05:25.181Z,1013.36
2022-12-27T05:06:25.180Z,1013.24
2022-12-27T05:07:25.171Z,1013.27
2022-12-27T05:08:25.196Z,1013.28
2022-12-27T05:09:25.148Z,1013.33
2022-12-27T05:10:25.152Z,1013.31
2022-12-27T05:11:25.125Z,1013.33
2022-12-27T05:12:25.120Z,1013.38
2022-12-27T05:13:25.116Z,1013.39
2022-12-27T05:14:25.109Z,1013.37
2022-12-27T05:15:25.084Z,1013.41
2022-12-27T05:16:25.088Z,1013.31
2022-12-27T05:17:25.063Z,1013.36
2022-12-27T05:18:25.075Z,1013.46
2022-12-27T05:19:25.062Z,1013.45
2022-12-27T05:20:25.049Z,1013.44
2022-12-27T05:21:25.020Z,1013.47
2022-12-27T05:22:25.012Z,1013.41
2022-12-27T05:23:25.008Z,1013.44
2022-12-27T05:24:25.006Z,1013.45
2022-12-27T05:25:24.985Z,1013.44
2022-12-27T05:26:25.869Z,1013.50
2022-12-27T05:27:24.965Z,1013.47
2022-12-27T05:28:24.969Z,1013.53
2022-12-27T05:29:24.940Z,1013.53
2022-12-27T05:30:24.940Z,1013.47
2022-12-27T05:31:24.936Z,1013.53
2022-12-27T05:32:24.916Z,1013.52
2022-12-27T05:33:24.885Z,1013.45
2022-12-27T05:34:24.926Z,1013.47
2022-12-27T05:35:24.872Z,1013.53
2022-12-27T05:36:24.896Z,1013.53
2022-12-27T05:37:24.872Z,1013.55
2022-12-27T05:38:24.856Z,1013.56
2022-12-27T05:39:24.829Z,1013.59
2022-12-27T05:40:24.839Z,1013.68
2022-12-27T05:41:24.949Z,1013.71
2022-12-27T05:42:24.836Z,1013.64
2022-12-27T05:43:24.779Z,1013.76
2022-12-27T05:44:24.790Z,1013.83
2022-12-27T05:45:24.774Z,1013.72
2022-12-27T05:46:24.791Z,1013.77
2022-12-27T05:47:24.752Z,1013.77
2022-12-27T05:48:24.744Z,1013.90
2022-12-27T05:49:24.724Z,1013.96
2022-12-27T05:50:24.729Z,1014.01
2022-12-27T05:51:24.716Z,1013.85
2022-12-27T05:52:24.696Z,1013.84
2022-12-27T05:53:24.686Z,1013.96
2022-12-27T05:54:24.696Z,1013.98
2022-12-27T05:55:24.664Z,1013.91
2022-12-27T05:56:24.684Z,1013.99
2022-12-27T05:57:24.726Z,1014.03
2022-12-27T05:58:24.636Z,1013.89
2022-12-27T05:59:24.613Z,1013.91
2022-12-27T06:00:24.639Z,1013.97
2022-12-27T06:01:24.659Z,1013.99
2022-12-27T06:02:24.727Z,1014.03
2022-12-27T06:03:24.652Z,1013.85
2022-12-27T06:04:24.578Z,1014.07
2022-12-27T06:05:24.579Z,1014.00
2022-12-27T06:06:24.679Z,1014.04
2022-12-27T06:07:24.540Z,1013.99
2022-12-27T06:08:24.540Z,1014.08
2022-12-27T06:09:24.538Z,1014.02
2022-12-27T06:10:24.729Z,1014.04
2022-12-27T06:11:24.510Z,1014.02
2022-12-27T06:12:24.491Z,1014.10
2022-12-27T06:13:24.501Z,1014.06
2022-12-27T06:14:24.494Z,1014.05
2022-12-27T06:15:24.456Z,1013.93
2022-12-27T06:16:24.466Z,1014.06
2022-12-27T06:17:24.465Z,1014.01
2022-12-27T06:18:24.460Z,1014.08
2022-12-27T06:19:24.412Z,1014.10
2022-12-27T06:20:24.419Z,1014.14
2022-12-27T06:21:24.376Z,1014.26
2022-12-27T06:22:24.389Z,1014.19
2022-12-27T06:23:24.354Z,1014.26
2022-12-27T06:24:24.381Z,1014.27
2022-12-27T06:25:24.720Z,1014.14
2022-12-27T06:26:24.361Z,1014.31
2022-12-27T06:27:24.324Z,1014.21
2022-12-27T06:28:24.530Z,1014.25
2022-12-27T06:29:24.330Z,1014.16
2022-12-27T06:30:24.406Z,1014.28
2022-12-27T06:31:24.317Z,1014.18
2022-12-27T06:32:24.303Z,1014.20
2022-12-27T06:33:24.267Z,1014.24
2022-12-27T06:34:24.270Z,1014.14
2022-12-27T06:35:24.245Z,1014.22
2022-12-27T06:36:24.281Z,1014.16
2022-12-27T06:37:24.224Z,1014.41
2022-12-27T06:38:24.237Z,1014.31
2022-12-27T06:39:24.212Z,1014.30
2022-12-27T06:40:24.203Z,1014.22
2022-12-27T06:41:24.169Z,1014.38
2022-12-27T06:42:24.195Z,1014.22
2022-12-27T06:43:24.166Z,1014.27
2022-12-27T06:44:24.144Z,1014.30
2022-12-27T06:45:24.251Z,1014.27
2022-12-27T06:46:24.185Z,1014.43
2022-12-27T06:47:24.124Z,1014.45
2022-12-27T06:48:24.103Z,1014.41
2022-12-27T06:49:24.111Z,1014.52
2022-12-27T06:50:24.111Z,1014.46
2022-12-27T06:51:24.071Z,1014.42
2022-12-27T06:52:24.103Z,1014.42
2022-12-27T06:53:24.054Z,1014.47
2022-12-27T06:54:24.079Z,1014.44
2022-12-27T06:55:24.056Z,1014.56
2022-12-27T06:56:24.066Z,1014.44
2022-12-27T06:57:23.996Z,1014.58
2022-12-27T06:58:24.023Z,1014.55
2022-12-27T06:59:24.089Z,1014.64
2022-12-27T07:00:24.018Z,1014.58
2022-12-27T07:01:24.044Z,1014.65
2022-12-27T07:02:24.114Z,1014.62
2022-12-27T07:03:24.001Z,1014.78
2022-12-27T07:04:23.959Z,1014.85
2022-12-27T07:05:23.934Z,1014.71
2022-12-27T07:06:23.932Z,1014.82
2022-12-27T07:07:23.892Z,1014.59
2022-12-27T07:08:23.924Z,1014.68
2022-12-27T07:09:23.871Z,1014.69
2022-12-27T07:10:23.896Z,1014.60
2022-12-27T07:11:23.876Z,1014.67
2022-12-27T07:12:23.860Z,1014.69
2022-12-27T07:13:23.859Z,1014.82
2022-12-27T07:14:23.850Z,1014.77
2022-12-27T07:15:23.834Z,1014.73
2022-12-27T07:16:23.845Z,1014.72
2022-12-27T07:17:23.810Z,1014.80
2022-12-27T07:18:23.793Z,1014.75
2022-12-27T07:19:23.787Z,1014.65
2022-12-27T07:20:23.800Z,1014.69
2022-12-27T07:21:23.778Z,1014.81
2022-12-27T07:22:23.763Z,1014.66
2022-12-27T07:23:23.775Z,1014.64
2022-12-27T07:24:23.753Z,1014.70
2022-12-27T07:25:23.711Z,1014.80
2022-12-27T07:26:23.736Z,1014.64
2022-12-27T07:27:23.708Z,1014.80
2022-12-27T07:28:23.699Z,1014.81
2022-12-27T07:29:23.677Z,1014.77
2022-12-27T07:30:23.886Z,1014.83
2022-12-27T07:31:23.672Z,1015.01
2022-12-27T07:32:23.644Z,1014.85
2022-12-27T07:33:23.647Z,1014.85
2022-12-27T07:34:23.625Z,1014.99
2022-12-27T07:35:23.636Z,1015.03
2022-12-27T07:36:23.605Z,1015.06
2022-12-27T07:37:23.588Z,1014.96
2022-12-27T07:38:23.980Z,1015.04
2022-12-27T07:39:23.577Z,1014.87
2022-12-27T07:40:23.576Z,1014.94
2022-12-27T07:41:23.546Z,1015.09
2022-12-27T07:42:23.550Z,1015.03
2022-12-27T07:43:23.536Z,1015.00
2022-12-27T07:44:23.558Z,1015.06
2022-12-27T07:45:23.504Z,1015.06
2022-12-27T07:46:23.498Z,1015.09
2022-12-27T07:47:23.541Z,1015.06
2022-12-27T07:48:23.495Z,1015.15
2022-12-27T07:49:23.501Z,1015.27
2022-12-27T07:50:23.460Z,1015.19
2022-12-27T07:51:23.667Z,1015.17
2022-12-27T07:52:23.436Z,1015.20
2022-12-27T07:53:23.437Z,1015.23
2022-12-27T07:54:23.464Z,1015.22
2022-12-27T07:55:23.398Z,1015.25
2022-12-27T07:56:26.275Z,1015.20
2022-12-27T07:57:23.399Z,1015.23
2022-12-27T07:58:23.373Z,1015.25
2022-12-27T07:59:23.402Z,1015.21
2022-12-27T08:00:23.355Z,1015.33
2022-12-27T08:01:23.565Z,1015.32
2022-12-27T08:02:23.506Z,1015.28
2022-12-27T08:03:23.372Z,1015.32
2022-12-27T08:04:23.310Z,1015.33
2022-12-27T08:05:27.653Z,1015.27
2022-12-27T08:06:23.330Z,1015.26
2022-12-27T08:07:23.295Z,1015.28
2022-12-27T08:08:23.261Z,1015.30
2022-12-27T08:09:23.280Z,1015.29
2022-12-27T08:10:23.227Z,1015.30
2022-12-27T08:11:23.260Z,1015.29
2022-12-27T08:12:23.228Z,1015.31
2022-12-27T08:13:23.226Z,1015.32
2022-12-27T08:14:23.203Z,1015.31
2022-12-27T08:15:23.194Z,1015.34
2022-12-27T08:16:23.223Z,1015.32
2022-12-27T08:17:23.213Z,1015.30
2022-12-27T08:18:23.192Z,1015.36
2022-12-27T08:19:23.164Z,1015.36
2022-12-27T08:20:23.139Z,1015.32
2022-12-27T08:21:23.132Z,1015.46
2022-12-27T08:22:23.125Z,1015.40
2022-12-27T08:23:23.131Z,1015.37
2022-12-27T08:24:23.094Z,1015.43
2022-12-27T08:25:23.088Z,1015.40
2022-12-27T08:26:23.070Z,1015.44
2022-12-27T08:27:23.080Z,1015.37
2022-12-27T08:28:23.051Z,1015.41
2022-12-27T08:29:23.065Z,1015.36
2022-12-27T08:30:23.035Z,1015.41
2022-12-27T08:31:23.057Z,1015.47
2022-12-27T08:32:23.353Z,1015.40
2022-12-27T08:33:23.009Z,1015.56
2022-12-27T08:34:22.990Z,1015.46
2022-12-27T08:35:51.564Z,1015.50
2022-12-27T08:37:35.647Z,1015.47
2022-12-27T08:38:44.130Z,1015.50
2022-12-27T08:39:35.636Z,1015.60
2022-12-27T08:40:35.600Z,1015.50
2022-12-27T08:41:35.613Z,1015.47
2022-12-27T08:42:35.585Z,1015.46
2022-12-27T08:43:35.580Z,1015.50
2022-12-27T08:44:35.572Z,1015.52
2022-12-27T08:45:35.626Z,1015.49
2022-12-27T08:46:36.308Z,1015.54
2022-12-27T08:47:35.556Z,1015.41
2022-12-27T08:48:35.860Z,1015.57
2022-12-27T08:49:35.513Z,1015.45
2022-12-27T08:50:35.621Z,1015.58
2022-12-27T08:51:40.679Z,1015.46
2022-12-27T08:52:36.486Z,1015.51
2022-12-27T08:53:35.776Z,1015.51
2022-12-27T08:54:35.556Z,1015.44
2022-12-27T08:55:35.453Z,1015.52
2022-12-27T08:56:35.445Z,1015.51
2022-12-27T08:57:35.417Z,1015.55
2022-12-27T08:58:35.451Z,1015.56
2022-12-27T08:59:35.415Z,1015.54
2022-12-27T09:00:35.420Z,1015.50
2022-12-27T09:01:35.442Z,1015.58
2022-12-27T09:02:35.492Z,1015.56
2022-12-27T09:03:35.444Z,1015.53
2022-12-27T09:04:35.369Z,1015.54
2022-12-27T09:05:41.255Z,1015.73
2022-12-27T09:06:36.351Z,1015.70
2022-12-27T09:07:35.334Z,1015.74
2022-12-27T09:08:35.441Z,1015.60
2022-12-27T09:09:35.308Z,1015.70
2022-12-27T09:10:35.315Z,1015.64
2022-12-27T09:11:35.292Z,1015.67
2022-12-27T09:12:35.286Z,1015.61
2022-12-27T09:13:35.256Z,1015.85
2022-12-27T09:14:35.270Z,1015.72
2022-12-27T09:15:35.409Z,1015.79
2022-12-27T09:16:35.271Z,1015.74
2022-12-27T09:17:35.220Z,1015.82
2022-12-27T09:18:35.257Z,1015.82
2022-12-27T09:19:35.185Z,1015.77
2022-12-27T09:20:35.194Z,1015.92
2022-12-27T09:21:35.206Z,1015.81
2022-12-27T09:22:35.185Z,1015.85
2022-12-27T09:23:35.143Z,1015.87
2022-12-27T09:24:35.159Z,1016.01
2022-12-27T09:25:35.181Z,1015.95
2022-12-27T09:26:35.202Z,1015.85
2022-12-27T09:27:35.124Z,1015.92
2022-12-27T09:28:35.103Z,1015.92
2022-12-27T09:29:35.681Z,1016.08
2022-12-27T09:30:35.168Z,1016.09
2022-12-27T09:31:35.097Z,1015.99
2022-12-27T09:32:35.057Z,1016.20
2022-12-27T09:33:35.135Z,1016.00
2022-12-27T09:34:35.056Z,1016.12
2022-12-27T09:35:38.434Z,1016.04
2022-12-27T09:36:35.032Z,1015.99
2022-12-27T09:37:34.999Z,1016.05
2022-12-27T09:38:34.988Z,1016.04
2022-12-27T09:39:34.967Z,1016.07
2022-12-27T09:40:35.027Z,1016.17
2022-12-27T09:43:06.219Z,1016.07
2022-12-27T09:43:35.959Z,1016.14
2022-12-27T09:44:34.980Z,1016.24
2022-12-27T09:45:34.945Z,1016.13
2022-12-27T09:46:34.955Z,1016.22
2022-12-27T09:47:34.896Z,1016.23
2022-12-27T09:48:34.893Z,1016.17
2022-12-27T09:49:34.882Z,1016.05
2022-12-27T09:50:34.878Z,1016.06
2022-12-27T09:51:34.842Z,1016.06
2022-12-27T09:52:34.868Z,1016.09
2022-12-27T09:53:34.830Z,1016.09
2022-12-27T09:54:34.822Z,1016.07
2022-12-27T09:55:34.797Z,1016.11
2022-12-27T09:56:54.525Z,1016.05
2022-12-27T09:57:35.790Z,1016.12
2022-12-27T09:58:34.806Z,1016.15
2022-12-27T09:59:34.758Z,1016.12
2022-12-27T10:00:36.048Z,1016.18
2022-12-27T10:01:34.850Z,1016.15
2022-12-27T10:02:34.918Z,1016.15
2022-12-27T10:03:34.734Z,1016.11
2022-12-27T10:05:10.082Z,1016.07
2022-12-27T10:05:35.742Z,1016.11
2022-12-27T10:06:34.712Z,1016.09
2022-12-27T10:07:34.670Z,1016.12
2022-12-27T10:08:34.709Z,1016.06
2022-12-27T10:09:34.674Z,1016.00
2022-12-27T10:10:34.685Z,1016.23
2022-12-27T10:11:34.641Z,1016.09
2022-12-27T10:12:34.627Z,1016.21
2022-12-27T10:13:34.612Z,1016.27
2022-12-27T10:14:34.619Z,1016.23
2022-12-27T10:15:34.795Z,1016.12
2022-12-27T10:16:34.600Z,1016.22
2022-12-27T10:17:34.584Z,1016.14
2022-12-27T10:18:34.565Z,1016.06
2022-12-27T10:19:34.555Z,1016.16
2022-12-27T10:20:34.561Z,1016.12
2022-12-27T10:21:34.530Z,1016.06
2022-12-27T10:22:43.355Z,1016.07
2022-12-27T10:23:35.270Z,1016.06
2022-12-27T10:24:36.303Z,1016.14
2022-12-27T10:25:37.190Z,1016.21
2022-12-27T10:26:34.492Z,1016.17
2022-12-27T10:27:34.474Z,1016.13
2022-12-27T10:28:34.482Z,1016.07
2022-12-27T10:29:34.630Z,1016.09
2022-12-27T10:30:34.461Z,1016.11
2022-12-27T10:31:34.496Z,1016.33
2022-12-27T10:32:34.447Z,1016.13
2022-12-27T10:33:34.395Z,1016.07
2022-12-27T10:34:34.404Z,1016.06
2022-12-27T10:35:34.537Z,1016.11
2022-12-27T10:36:34.405Z,1016.20
2022-12-27T10:37:34.376Z,1016.08
2022-12-27T10:38:34.348Z,1016.24
2022-12-27T10:39:34.345Z,1016.15
2022-12-27T10:40:34.746Z,1016.19
2022-12-27T10:41:34.344Z,1016.27
2022-12-27T10:42:34.329Z,1016.11
2022-12-27T10:43:34.308Z,1016.17
2022-12-27T10:44:34.298Z,1016.09
2022-12-27T10:45:34.322Z,1016.16
2022-12-27T10:46:34.399Z,1016.12
2022-12-27T10:47:34.303Z,1016.16
2022-12-27T10:49:10.852Z,1016.09
2022-12-27T10:49:35.215Z,1016.16
2022-12-27T10:50:34.262Z,1016.22
2022-12-27T10:51:34.268Z,1016.17
2022-12-27T10:52:34.253Z,1016.18
2022-12-27T10:53:34.927Z,1016.36
2022-12-27T10:54:34.195Z,1016.29
2022-12-27T10:55:34.164Z,1016.12
2022-12-27T10:56:34.185Z,1016.17
2022-12-27T10:57:34.166Z,1016.14
2022-12-27T10:58:34.136Z,1016.16
2022-12-27T10:59:34.124Z,1016.13
2022-12-27T11:00:34.165Z,1016.18
2022-12-27T11:01:34.140Z,1016.10
2022-12-27T11:02:34.208Z,1016.12
2022-12-27T11:03:34.146Z,1016.17
2022-12-27T11:04:34.094Z,1016.17
2022-12-27T11:05:34.081Z,1016.13
2022-12-27T11:06:34.130Z,1016.14
2022-12-27T11:07:34.060Z,1016.14
2022-12-27T11:08:34.056Z,1016.25
2022-12-27T11:09:34.020Z,1016.18
2022-12-27T11:10:34.029Z,1016.07
2022-12-27T11:11:34.001Z,1016.11
2022-12-27T11:12:33.983Z,1016.17
2022-12-27T11:13:33.969Z,1016.23
2022-12-27T11:14:33.973Z,1016.17
2022-12-27T11:15:34.097Z,1016.11
2022-12-27T11:16:34.015Z,1016.27
2022-12-27T11:17:33.933Z,1016.10
2022-12-27T11:18:33.945Z,1016.01
2022-12-27T11:19:33.925Z,1016.13
2022-12-27T11:20:33.932Z,1016.05
2022-12-27T11:21:33.874Z,1016.04
2022-12-27T11:22:33.891Z,1016.22
2022-12-27T11:23:33.885Z,1015.87
2022-12-27T11:24:33.871Z,1016.19
2022-12-27T11:25:33.862Z,1016.11
2022-12-27T11:26:33.835Z,1016.11
2022-12-27T11:27:33.836Z,1016.09
2022-12-27T11:28:33.840Z,1016.09
2022-12-27T11:29:33.798Z,1016.07
2022-12-27T11:30:33.809Z,1016.09
2022-12-27T11:31:33.822Z,1016.06
2022-12-27T11:32:33.808Z,1016.14
2022-12-27T11:33:33.768Z,1016.14
2022-12-27T11:34:33.775Z,1015.90
2022-12-27T11:35:33.747Z,1016.04
2022-12-27T11:36:33.737Z,1016.14
2022-12-27T11:37:33.908Z,1016.23
2022-12-27T11:38:33.716Z,1016.24
2022-12-27T11:39:33.705Z,1016.10
2022-12-27T11:40:33.674Z,1016.03
2022-12-27T11:41:33.675Z,1016.09
2022-12-27T11:42:33.681Z,1016.16
2022-12-27T11:43:33.665Z,1016.14
2022-12-27T11:44:33.680Z,1016.08
2022-12-27T11:45:33.640Z,1016.09
2022-12-27T11:46:33.665Z,1016.05
2022-12-27T11:47:33.607Z,1016.03
2022-12-27T11:48:33.612Z,1016.12
2022-12-27T11:49:33.629Z,1016.10
2022-12-27T11:50:33.573Z,1016.01
2022-12-27T11:51:33.563Z,1016.10
2022-12-27T11:52:33.614Z,1016.04
2022-12-27T11:53:33.543Z,1015.93
2022-12-27T11:54:33.561Z,1015.99
2022-12-27T11:55:33.549Z,1015.87
2022-12-27T11:56:33.535Z,1015.96
2022-12-27T11:57:33.513Z,1015.94
2022-12-27T11:58:33.487Z,1015.92
2022-12-27T11:59:33.489Z,1015.94
2022-12-27T12:00:33.485Z,1015.92
2022-12-27T12:01:33.514Z,1015.85
2022-12-27T12:02:33.510Z,1015.82
2022-12-27T12:03:33.467Z,1015.95
2022-12-27T12:04:33.501Z,1015.86
2022-12-27T12:05:33.434Z,1015.94
2022-12-27T12:06:34.745Z,1015.95
2022-12-27T12:07:33.395Z,1015.95
2022-12-27T12:08:33.434Z,1015.92